sensor_id;sensor_type;location;lat;lon;timestamp;temperature;humidity
14101;DHT22;7127;49.372;8.166;2024-03-23T00:51:48;15.20;51.30
14101;DHT22;7127;49.372;8.166;2024-03-23T00:54:14;15.20;51.20
14101;DHT22;7127;49.372;8.166;2024-03-23T00:56:40;15.40;51.40
14101;DHT22;7127;49.372;8.166;2024-03-23T00:59:06;15.20;51.40
14101;DHT22;7127;49.372;8.166;2024-03-23T01:01:33;15.10;51.40
14101;DHT22;7127;49.372;8.166;2024-03-23T01:03:59;15.20;51.40
14101;DHT22;7127;49.372;8.166;2024-03-23T01:06:25;15.20;51.40
14101;DHT22;7127;49.372;8.166;2024-03-23T01:08:52;15.20;51.50
14101;DHT22;7127;49.372;8.166;2024-03-23T01:11:19;15.20;51.50
14101;DHT22;7127;49.372;8.166;2024-03-23T01:13:45;15.20;51.50
14101;DHT22;7127;49.372;8.166;2024-03-23T01:16:12;15.20;51.50
14101;DHT22;7127;49.372;8.166;2024-03-23T01:18:37;15.20;51.50
14101;DHT22;7127;49.372;8.166;2024-03-23T01:21:04;15.20;51.50
14101;DHT22;7127;49.372;8.166;2024-03-23T01:23:30;15.20;51.50
14101;DHT22;7127;49.372;8.166;2024-03-23T01:25:58;15.40;51.60
14101;DHT22;7127;49.372;8.166;2024-03-23T01:28:24;15.20;51.60
14101;DHT22;7127;49.372;8.166;2024-03-23T01:30:50;15.20;51.70
14101;DHT22;7127;49.372;8.166;2024-03-23T01:33:19;15.20;51.70
14101;DHT22;7127;49.372;8.166;2024-03-23T01:35:46;15.60;51.90
14101;DHT22;7127;49.372;8.166;2024-03-23T01:38:12;15.20;51.70
14101;DHT22;7127;49.372;8.166;2024-03-23T01:40:38;15.20;51.80
14101;DHT22;7127;49.372;8.166;2024-03-23T01:43:07;15.30;51.70
14101;DHT22;7127;49.372;8.166;2024-03-23T01:45:34;15.20;51.70
14101;DHT22;7127;49.372;8.166;2024-03-23T01:48:01;15.80;52.20
14101;DHT22;7127;49.372;8.166;2024-03-23T01:50:28;15.20;51.60
14101;DHT22;7127;49.372;8.166;2024-03-23T01:52:56;15.20;51.60
14101;DHT22;7127;49.372;8.166;2024-03-23T01:55:24;15.20;51.80
14101;DHT22;7127;49.372;8.166;2024-03-23T01:57:50;15.10;51.80
14101;DHT22;7127;49.372;8.166;2024-03-23T02:00:19;15.10;51.80
14101;DHT22;7127;49.372;8.166;2024-03-23T02:02:45;15.10;51.80
14101;DHT22;7127;49.372;8.166;2024-03-23T02:05:12;15.10;51.80
14101;DHT22;7127;49.372;8.166;2024-03-23T02:07:39;15.10;52.00
14101;DHT22;7127;49.372;8.166;2024-03-23T02:10:06;15.10;52.00
14101;DHT22;7127;49.372;8.166;2024-03-23T02:12:32;15.10;52.10
14101;DHT22;7127;49.372;8.166;2024-03-23T02:14:59;15.10;52.30
14101;DHT22;7127;49.372;8.166;2024-03-23T02:17:26;15.10;52.50
14101;DHT22;7127;49.372;8.166;2024-03-23T02:19:53;15.10;53.00
14101;DHT22;7127;49.372;8.166;2024-03-23T02:22:19;15.20;52.90
14101;DHT22;7127;49.372;8.166;2024-03-23T02:24:47;15.20;52.90
14101;DHT22;7127;49.372;8.166;2024-03-23T02:27:14;15.30;52.80
14101;DHT22;7127;49.372;8.166;2024-03-23T02:29:40;15.40;52.80
14101;DHT22;7127;49.372;8.166;2024-03-23T02:32:06;15.40;52.80
14101;DHT22;7127;49.372;8.166;2024-03-23T02:34:34;15.50;52.70
14101;DHT22;7127;49.372;8.166;2024-03-23T02:37:00;15.60;52.70
14101;DHT22;7127;49.372;8.166;2024-03-23T02:39:27;16.10;52.90
14101;DHT22;7127;49.372;8.166;2024-03-23T02:41:54;15.70;52.50
14101;DHT22;7127;49.372;8.166;2024-03-23T02:44:20;15.70;52.30
14101;DHT22;7127;49.372;8.166;2024-03-23T02:46:46;15.60;52.10
14101;DHT22;7127;49.372;8.166;2024-03-23T02:49:13;15.80;52.10
14101;DHT22;7127;49.372;8.166;2024-03-23T02:51:39;15.80;52.00
14101;DHT22;7127;49.372;8.166;2024-03-23T02:54:06;15.80;51.80
14101;DHT22;7127;49.372;8.166;2024-03-23T02:56:32;15.90;51.70
14101;DHT22;7127;49.372;8.166;2024-03-23T02:59:01;15.90;51.70
14101;DHT22;7127;49.372;8.166;2024-03-23T03:01:26;15.90;51.60
14101;DHT22;7127;49.372;8.166;2024-03-23T03:03:53;16.00;51.60
14101;DHT22;7127;49.372;8.166;2024-03-23T03:06:29;15.90;51.50
14101;DHT22;7127;49.372;8.166;2024-03-23T03:08:56;16.00;51.50
14101;DHT22;7127;49.372;8.166;2024-03-23T03:11:22;16.00;51.40
14101;DHT22;7127;49.372;8.166;2024-03-23T03:13:48;16.00;51.30
14101;DHT22;7127;49.372;8.166;2024-03-23T03:16:16;16.00;51.30
14101;DHT22;7127;49.372;8.166;2024-03-23T03:18:42;16.00;51.30
14101;DHT22;7127;49.372;8.166;2024-03-23T03:21:09;16.00;51.40
14101;DHT22;7127;49.372;8.166;2024-03-23T03:23:37;16.00;51.30
14101;DHT22;7127;49.372;8.166;2024-03-23T03:26:03;16.00;51.30
14101;DHT22;7127;49.372;8.166;2024-03-23T03:28:30;16.00;51.40
14101;DHT22;7127;49.372;8.166;2024-03-23T03:30:56;16.00;51.40
14101;DHT22;7127;49.372;8.166;2024-03-23T03:33:25;16.00;51.50
14101;DHT22;7127;49.372;8.166;2024-03-23T03:35:51;16.10;51.50
14101;DHT22;7127;49.372;8.166;2024-03-23T03:38:18;16.00;51.40
14101;DHT22;7127;49.372;8.166;2024-03-23T03:40:44;16.00;51.50
14101;DHT22;7127;49.372;8.166;2024-03-23T03:43:11;16.00;51.60
14101;DHT22;7127;49.372;8.166;2024-03-23T03:45:37;15.90;51.40
14101;DHT22;7127;49.372;8.166;2024-03-23T03:48:04;16.00;51.50
14101;DHT22;7127;49.372;8.166;2024-03-23T03:50:31;16.00;51.50
14101;DHT22;7127;49.372;8.166;2024-03-23T03:52:58;16.00;51.50
14101;DHT22;7127;49.372;8.166;2024-03-23T03:55:23;16.00;51.50
14101;DHT22;7127;49.372;8.166;2024-03-23T03:57:50;16.00;51.50
14101;DHT22;7127;49.372;8.166;2024-03-23T04:00:16;15.90;51.40
14101;DHT22;7127;49.372;8.166;2024-03-23T04:02:43;15.90;51.40
14101;DHT22;7127;49.372;8.166;2024-03-23T04:05:09;15.90;51.30
14101;DHT22;7127;49.372;8.166;2024-03-23T04:07:37;16.50;51.90
14101;DHT22;7127;49.372;8.166;2024-03-23T04:10:03;15.90;51.50
14101;DHT22;7127;49.372;8.166;2024-03-23T04:12:33;15.90;51.50
14101;DHT22;7127;49.372;8.166;2024-03-23T04:14:58;15.90;51.50
14101;DHT22;7127;49.372;8.166;2024-03-23T04:17:27;15.90;51.50
14101;DHT22;7127;49.372;8.166;2024-03-23T04:19:57;15.90;51.70
14101;DHT22;7127;49.372;8.166;2024-03-23T04:22:24;16.00;51.60
14101;DHT22;7127;49.372;8.166;2024-03-23T04:24:52;15.90;51.50
14101;DHT22;7127;49.372;8.166;2024-03-23T04:27:19;15.90;51.40
14101;DHT22;7127;49.372;8.166;2024-03-23T04:29:47;15.90;51.40
14101;DHT22;7127;49.372;8.166;2024-03-23T04:32:14;15.90;51.30
14101;DHT22;7127;49.372;8.166;2024-03-23T04:34:40;15.80;51.30
14101;DHT22;7127;49.372;8.166;2024-03-23T04:37:07;15.90;51.30
14101;DHT22;7127;49.372;8.166;2024-03-23T04:39:34;15.80;51.20
14101;DHT22;7127;49.372;8.166;2024-03-23T04:42:02;15.80;51.30
14101;DHT22;7127;49.372;8.166;2024-03-23T04:44:29;15.90;51.50
14101;DHT22;7127;49.372;8.166;2024-03-23T04:46:56;15.80;51.50
14101;DHT22;7127;49.372;8.166;2024-03-23T04:49:23;15.70;51.10
14101;DHT22;7127;49.372;8.166;2024-03-23T04:51:49;15.80;51.00
14101;DHT22;7127;49.372;8.166;2024-03-23T04:54:16;15.70;51.10
14101;DHT22;7127;49.372;8.166;2024-03-23T04:56:43;15.70;51.10
14101;DHT22;7127;49.372;8.166;2024-03-23T04:59:11;15.60;51.10
14101;DHT22;7127;49.372;8.166;2024-03-23T05:01:37;15.50;51.10
14101;DHT22;7127;49.372;8.166;2024-03-23T05:04:04;15.60;51.40
14101;DHT22;7127;49.372;8.166;2024-03-23T05:06:30;15.60;51.30
14101;DHT22;7127;49.372;8.166;2024-03-23T05:08:57;15.60;51.40
14101;DHT22;7127;49.372;8.166;2024-03-23T05:11:23;15.50;51.40
14101;DHT22;7127;49.372;8.166;2024-03-23T05:13:49;15.50;51.40
14101;DHT22;7127;49.372;8.166;2024-03-23T05:16:17;15.40;51.40
14101;DHT22;7127;49.372;8.166;2024-03-23T05:18:43;15.40;51.40
14101;DHT22;7127;49.372;8.166;2024-03-23T05:21:09;15.40;51.70
14101;DHT22;7127;49.372;8.166;2024-03-23T05:23:36;15.40;51.50
14101;DHT22;7127;49.372;8.166;2024-03-23T05:26:03;15.40;51.50
14101;DHT22;7127;49.372;8.166;2024-03-23T05:28:30;15.30;51.60
14101;DHT22;7127;49.372;8.166;2024-03-23T05:30:56;15.30;51.30
14101;DHT22;7127;49.372;8.166;2024-03-23T05:33:25;15.60;51.70
14101;DHT22;7127;49.372;8.166;2024-03-23T05:35:56;15.20;51.20
14101;DHT22;7127;49.372;8.166;2024-03-23T05:38:23;15.10;51.40
14101;DHT22;7127;49.372;8.166;2024-03-23T05:40:53;15.00;51.30
14101;DHT22;7127;49.372;8.166;2024-03-23T05:43:20;15.00;51.10
14101;DHT22;7127;49.372;8.166;2024-03-23T05:45:48;14.80;50.80
14101;DHT22;7127;49.372;8.166;2024-03-23T05:48:19;14.80;51.10
14101;DHT22;7127;49.372;8.166;2024-03-23T05:50:46;14.70;50.60
14101;DHT22;7127;49.372;8.166;2024-03-23T05:53:14;14.60;50.50
14101;DHT22;7127;49.372;8.166;2024-03-23T05:55:39;14.40;50.50
14101;DHT22;7127;49.372;8.166;2024-03-23T05:58:06;14.30;50.40
14101;DHT22;7127;49.372;8.166;2024-03-23T06:00:32;14.20;50.30
14101;DHT22;7127;49.372;8.166;2024-03-23T06:02:59;14.20;50.30
14101;DHT22;7127;49.372;8.166;2024-03-23T06:05:25;14.00;50.20
14101;DHT22;7127;49.372;8.166;2024-03-23T06:07:53;13.90;50.30
14101;DHT22;7127;49.372;8.166;2024-03-23T06:10:19;13.90;50.60
14101;DHT22;7127;49.372;8.166;2024-03-23T06:12:46;13.80;51.00
14101;DHT22;7127;49.372;8.166;2024-03-23T06:15:12;13.80;51.20
14101;DHT22;7127;49.372;8.166;2024-03-23T06:17:38;13.80;51.80
14101;DHT22;7127;49.372;8.166;2024-03-23T06:20:05;13.70;51.80
14101;DHT22;7127;49.372;8.166;2024-03-23T06:22:32;13.60;51.70
14101;DHT22;7127;49.372;8.166;2024-03-23T06:25:00;13.60;52.00
14101;DHT22;7127;49.372;8.166;2024-03-23T06:27:27;13.50;52.30
14101;DHT22;7127;49.372;8.166;2024-03-23T06:29:53;13.40;52.30
14101;DHT22;7127;49.372;8.166;2024-03-23T06:32:20;13.30;52.20
14101;DHT22;7127;49.372;8.166;2024-03-23T06:34:46;13.20;52.50
14101;DHT22;7127;49.372;8.166;2024-03-23T06:37:13;13.20;52.60
14101;DHT22;7127;49.372;8.166;2024-03-23T06:39:39;13.10;52.50
14101;DHT22;7127;49.372;8.166;2024-03-23T06:42:07;13.10;52.60
14101;DHT22;7127;49.372;8.166;2024-03-23T06:44:33;13.10;52.40
14101;DHT22;7127;49.372;8.166;2024-03-23T06:47:00;13.10;52.40
14101;DHT22;7127;49.372;8.166;2024-03-23T06:49:26;13.10;52.50
14101;DHT22;7127;49.372;8.166;2024-03-23T06:51:52;13.10;52.60
14101;DHT22;7127;49.372;8.166;2024-03-23T06:54:19;13.10;52.30
14101;DHT22;7127;49.372;8.166;2024-03-23T06:56:46;13.10;52.80
14101;DHT22;7127;49.372;8.166;2024-03-23T06:59:13;13.10;51.80
14101;DHT22;7127;49.372;8.166;2024-03-23T07:01:40;13.00;51.70
14101;DHT22;7127;49.372;8.166;2024-03-23T07:04:05;13.10;52.00
14101;DHT22;7127;49.372;8.166;2024-03-23T07:06:32;13.10;52.00
14101;DHT22;7127;49.372;8.166;2024-03-23T07:08:58;13.70;52.50
14101;DHT22;7127;49.372;8.166;2024-03-23T07:11:25;13.20;51.90
14101;DHT22;7127;49.372;8.166;2024-03-23T07:13:52;13.20;51.90
14101;DHT22;7127;49.372;8.166;2024-03-23T07:16:21;13.20;51.30
14101;DHT22;7127;49.372;8.166;2024-03-23T07:18:47;13.80;51.90
14101;DHT22;7127;49.372;8.166;2024-03-23T07:21:15;13.30;51.50
14101;DHT22;7127;49.372;8.166;2024-03-23T07:23:42;13.40;51.30
14101;DHT22;7127;49.372;8.166;2024-03-23T07:26:10;13.50;51.30
14101;DHT22;7127;49.372;8.166;2024-03-23T07:28:36;13.50;51.00
14101;DHT22;7127;49.372;8.166;2024-03-23T07:31:04;13.50;50.90
14101;DHT22;7127;49.372;8.166;2024-03-23T07:33:31;13.60;50.90
14101;DHT22;7127;49.372;8.166;2024-03-23T07:35:58;13.70;50.30
14101;DHT22;7127;49.372;8.166;2024-03-23T07:38:26;13.70;49.50
14101;DHT22;7127;49.372;8.166;2024-03-23T07:41:02;13.70;49.10
14101;DHT22;7127;49.372;8.166;2024-03-23T07:43:29;13.70;48.50
14101;DHT22;7127;49.372;8.166;2024-03-23T07:45:55;13.80;48.70
14101;DHT22;7127;49.372;8.166;2024-03-23T07:48:22;13.70;48.60
14101;DHT22;7127;49.372;8.166;2024-03-23T07:50:57;13.80;48.30
14101;DHT22;7127;49.372;8.166;2024-03-23T07:53:24;13.70;48.00
14101;DHT22;7127;49.372;8.166;2024-03-23T07:55:54;13.70;47.90
14101;DHT22;7127;49.372;8.166;2024-03-23T07:58:20;14.00;48.20
14101;DHT22;7127;49.372;8.166;2024-03-23T08:00:46;13.60;47.60
14101;DHT22;7127;49.372;8.166;2024-03-23T08:03:13;13.60;48.10
14101;DHT22;7127;49.372;8.166;2024-03-23T08:05:39;13.60;48.30
14101;DHT22;7127;49.372;8.166;2024-03-23T08:08:07;13.60;48.00
14101;DHT22;7127;49.372;8.166;2024-03-23T08:10:33;13.60;47.70
14101;DHT22;7127;49.372;8.166;2024-03-23T08:13:00;13.60;46.90
14101;DHT22;7127;49.372;8.166;2024-03-23T08:15:25;13.60;47.80
14101;DHT22;7127;49.372;8.166;2024-03-23T08:17:52;13.70;47.70
14101;DHT22;7127;49.372;8.166;2024-03-23T08:20:18;13.70;48.00
14101;DHT22;7127;49.372;8.166;2024-03-23T08:22:44;13.80;48.50
14101;DHT22;7127;49.372;8.166;2024-03-23T08:25:12;13.90;47.90
14101;DHT22;7127;49.372;8.166;2024-03-23T08:27:38;14.00;48.20
14101;DHT22;7127;49.372;8.166;2024-03-23T08:30:05;14.00;47.90
14101;DHT22;7127;49.372;8.166;2024-03-23T08:32:32;14.10;47.50
14101;DHT22;7127;49.372;8.166;2024-03-23T08:34:58;14.20;46.60
14101;DHT22;7127;49.372;8.166;2024-03-23T08:37:25;14.10;45.90
14101;DHT22;7127;49.372;8.166;2024-03-23T08:39:51;14.20;45.60
14101;DHT22;7127;49.372;8.166;2024-03-23T08:42:19;14.20;45.40
14101;DHT22;7127;49.372;8.166;2024-03-23T08:44:46;14.20;46.10
14101;DHT22;7127;49.372;8.166;2024-03-23T08:47:15;14.20;46.20
14101;DHT22;7127;49.372;8.166;2024-03-23T08:49:40;14.20;46.70
14101;DHT22;7127;49.372;8.166;2024-03-23T08:52:11;14.20;46.60
14101;DHT22;7127;49.372;8.166;2024-03-23T08:54:37;14.30;46.70
14101;DHT22;7127;49.372;8.166;2024-03-23T08:57:04;14.40;46.80
14101;DHT22;7127;49.372;8.166;2024-03-23T08:59:31;14.40;45.60
14101;DHT22;7127;49.372;8.166;2024-03-23T09:01:57;14.50;46.10
14101;DHT22;7127;49.372;8.166;2024-03-23T09:04:24;14.50;45.30
14101;DHT22;7127;49.372;8.166;2024-03-23T09:06:50;14.50;45.00
14101;DHT22;7127;49.372;8.166;2024-03-23T09:09:17;14.60;45.10
14101;DHT22;7127;49.372;8.166;2024-03-23T09:11:43;14.50;44.40
14101;DHT22;7127;49.372;8.166;2024-03-23T09:14:10;14.50;44.40
14101;DHT22;7127;49.372;8.166;2024-03-23T09:16:37;14.50;44.20
14101;DHT22;7127;49.372;8.166;2024-03-23T09:19:03;14.60;44.10
14101;DHT22;7127;49.372;8.166;2024-03-23T09:21:29;14.60;43.70
14101;DHT22;7127;49.372;8.166;2024-03-23T09:23:56;14.50;43.20
14101;DHT22;7127;49.372;8.166;2024-03-23T09:26:22;14.60;44.10
14101;DHT22;7127;49.372;8.166;2024-03-23T09:28:48;14.60;44.20
14101;DHT22;7127;49.372;8.166;2024-03-23T09:31:14;14.90;42.50
14101;DHT22;7127;49.372;8.166;2024-03-23T09:33:43;14.60;43.60
14101;DHT22;7127;49.372;8.166;2024-03-23T09:36:09;14.60;43.00
14101;DHT22;7127;49.372;8.166;2024-03-23T09:38:36;14.60;43.90
14101;DHT22;7127;49.372;8.166;2024-03-23T09:41:07;14.70;44.00
14101;DHT22;7127;49.372;8.166;2024-03-23T09:43:34;14.70;44.10
14101;DHT22;7127;49.372;8.166;2024-03-23T09:46:01;14.80;43.70
14101;DHT22;7127;49.372;8.166;2024-03-23T09:48:28;14.90;44.40
14101;DHT22;7127;49.372;8.166;2024-03-23T09:50:55;15.10;44.50
14101;DHT22;7127;49.372;8.166;2024-03-23T09:53:22;15.00;44.50
14101;DHT22;7127;49.372;8.166;2024-03-23T09:55:48;15.10;43.30
14101;DHT22;7127;49.372;8.166;2024-03-23T09:58:17;15.20;43.80
14101;DHT22;7127;49.372;8.166;2024-03-23T10:00:43;15.20;44.10
14101;DHT22;7127;49.372;8.166;2024-03-23T10:03:10;15.30;44.30
14101;DHT22;7127;49.372;8.166;2024-03-23T10:05:37;15.40;44.30
14101;DHT22;7127;49.372;8.166;2024-03-23T10:08:17;15.50;43.30
14101;DHT22;7127;49.372;8.166;2024-03-23T10:10:44;15.50;42.70
14101;DHT22;7127;49.372;8.166;2024-03-23T10:13:23;15.50;42.30
14101;DHT22;7127;49.372;8.166;2024-03-23T10:15:55;15.70;41.60
14101;DHT22;7127;49.372;8.166;2024-03-23T10:18:22;15.70;39.20
14101;DHT22;7127;49.372;8.166;2024-03-23T10:20:51;15.70;40.10
14101;DHT22;7127;49.372;8.166;2024-03-23T10:23:20;15.90;41.00
14101;DHT22;7127;49.372;8.166;2024-03-23T10:25:48;15.80;39.70
14101;DHT22;7127;49.372;8.166;2024-03-23T10:28:14;15.80;40.80
14101;DHT22;7127;49.372;8.166;2024-03-23T10:30:40;15.80;40.60
14101;DHT22;7127;49.372;8.166;2024-03-23T10:33:08;15.90;37.10
14101;DHT22;7127;49.372;8.166;2024-03-23T10:35:33;15.90;37.70
14101;DHT22;7127;49.372;8.166;2024-03-23T10:38:00;16.00;38.40
14101;DHT22;7127;49.372;8.166;2024-03-23T10:40:29;16.00;38.80
14101;DHT22;7127;49.372;8.166;2024-03-23T10:42:57;16.00;39.30
14101;DHT22;7127;49.372;8.166;2024-03-23T10:45:24;16.00;40.20
14101;DHT22;7127;49.372;8.166;2024-03-23T10:47:51;16.00;40.30
14101;DHT22;7127;49.372;8.166;2024-03-23T10:50:17;16.10;39.30
14101;DHT22;7127;49.372;8.166;2024-03-23T10:52:47;16.30;40.20
14101;DHT22;7127;49.372;8.166;2024-03-23T10:55:15;16.30;40.00
14101;DHT22;7127;49.372;8.166;2024-03-23T10:57:45;16.20;40.30
14101;DHT22;7127;49.372;8.166;2024-03-23T11:00:14;16.30;40.30
14101;DHT22;7127;49.372;8.166;2024-03-23T11:02:42;16.30;40.40
14101;DHT22;7127;49.372;8.166;2024-03-23T11:05:29;16.40;39.40
14101;DHT22;7127;49.372;8.166;2024-03-23T11:07:57;16.30;39.60
14101;DHT22;7127;49.372;8.166;2024-03-23T11:10:27;16.30;39.20
14101;DHT22;7127;49.372;8.166;2024-03-23T11:12:57;16.30;39.00
14101;DHT22;7127;49.372;8.166;2024-03-23T11:15:23;16.30;39.30
14101;DHT22;7127;49.372;8.166;2024-03-23T11:18:03;16.30;39.90
14101;DHT22;7127;49.372;8.166;2024-03-23T11:20:33;16.30;39.10
14101;DHT22;7127;49.372;8.166;2024-03-23T11:23:00;16.30;39.30
14101;DHT22;7127;49.372;8.166;2024-03-23T11:25:27;16.30;37.80
14101;DHT22;7127;49.372;8.166;2024-03-23T11:27:56;16.40;38.40
14101;DHT22;7127;49.372;8.166;2024-03-23T11:30:24;16.40;38.70
14101;DHT22;7127;49.372;8.166;2024-03-23T11:32:51;16.40;39.10
14101;DHT22;7127;49.372;8.166;2024-03-23T11:35:26;16.50;38.20
14101;DHT22;7127;49.372;8.166;2024-03-23T11:38:04;16.40;38.00
14101;DHT22;7127;49.372;8.166;2024-03-23T11:40:30;16.30;38.60
14101;DHT22;7127;49.372;8.166;2024-03-23T11:43:00;16.20;39.80
14101;DHT22;7127;49.372;8.166;2024-03-23T11:45:26;16.00;40.90
14101;DHT22;7127;49.372;8.166;2024-03-23T11:48:05;15.80;41.40
14101;DHT22;7127;49.372;8.166;2024-03-23T11:50:31;15.60;42.40
14101;DHT22;7127;49.372;8.166;2024-03-23T11:53:12;15.40;42.30
14101;DHT22;7127;49.372;8.166;2024-03-23T11:55:45;15.30;43.40
14101;DHT22;7127;49.372;8.166;2024-03-23T11:58:15;15.20;43.90
14101;DHT22;7127;49.372;8.166;2024-03-23T12:00:41;15.10;43.70
14101;DHT22;7127;49.372;8.166;2024-03-23T12:03:08;15.10;44.90
14101;DHT22;7127;49.372;8.166;2024-03-23T12:05:36;15.00;44.60
14101;DHT22;7127;49.372;8.166;2024-03-23T12:08:20;15.00;44.70
14101;DHT22;7127;49.372;8.166;2024-03-23T12:10:49;14.90;44.50
14101;DHT22;7127;49.372;8.166;2024-03-23T12:13:18;14.90;44.40
14101;DHT22;7127;49.372;8.166;2024-03-23T12:15:45;14.80;44.40
14101;DHT22;7127;49.372;8.166;2024-03-23T12:18:13;14.70;44.60
14101;DHT22;7127;49.372;8.166;2024-03-23T12:20:39;14.70;44.80
14101;DHT22;7127;49.372;8.166;2024-03-23T12:23:10;14.70;44.80
14101;DHT22;7127;49.372;8.166;2024-03-23T12:25:37;14.60;44.80
14101;DHT22;7127;49.372;8.166;2024-03-23T12:28:04;14.60;44.80
14101;DHT22;7127;49.372;8.166;2024-03-23T12:30:38;14.60;44.80
14101;DHT22;7127;49.372;8.166;2024-03-23T12:33:05;14.60;45.00
14101;DHT22;7127;49.372;8.166;2024-03-23T12:35:31;14.60;44.70
14101;DHT22;7127;49.372;8.166;2024-03-23T12:37:58;14.60;44.80
14101;DHT22;7127;49.372;8.166;2024-03-23T12:40:24;14.60;45.30
14101;DHT22;7127;49.372;8.166;2024-03-23T12:42:52;14.50;45.70
14101;DHT22;7127;49.372;8.166;2024-03-23T12:45:17;14.30;45.90
14101;DHT22;7127;49.372;8.166;2024-03-23T12:47:45;14.10;45.90
14101;DHT22;7127;49.372;8.166;2024-03-23T12:50:11;13.90;45.40
14101;DHT22;7127;49.372;8.166;2024-03-23T12:52:38;13.70;46.10
14101;DHT22;7127;49.372;8.166;2024-03-23T12:55:04;13.50;46.20
14101;DHT22;7127;49.372;8.166;2024-03-23T12:57:32;13.40;46.80
14101;DHT22;7127;49.372;8.166;2024-03-23T12:59:58;13.20;47.00
14101;DHT22;7127;49.372;8.166;2024-03-23T13:02:24;13.10;47.40
14101;DHT22;7127;49.372;8.166;2024-03-23T13:04:52;13.10;47.20
14101;DHT22;7127;49.372;8.166;2024-03-23T13:07:20;13.00;48.30
14101;DHT22;7127;49.372;8.166;2024-03-23T13:09:47;12.90;48.20
14101;DHT22;7127;49.372;8.166;2024-03-23T13:12:13;12.90;48.60
14101;DHT22;7127;49.372;8.166;2024-03-23T13:14:39;12.90;48.50
14101;DHT22;7127;49.372;8.166;2024-03-23T13:17:06;12.90;49.10
14101;DHT22;7127;49.372;8.166;2024-03-23T13:19:32;12.80;48.70
14101;DHT22;7127;49.372;8.166;2024-03-23T13:22:01;12.80;48.60
14101;DHT22;7127;49.372;8.166;2024-03-23T13:24:27;12.70;48.60
14101;DHT22;7127;49.372;8.166;2024-03-23T13:26:55;12.70;49.00
14101;DHT22;7127;49.372;8.166;2024-03-23T13:29:22;12.70;48.80
14101;DHT22;7127;49.372;8.166;2024-03-23T13:31:49;12.70;49.40
14101;DHT22;7127;49.372;8.166;2024-03-23T13:34:17;12.80;49.20
14101;DHT22;7127;49.372;8.166;2024-03-23T13:36:44;12.80;49.20
14101;DHT22;7127;49.372;8.166;2024-03-23T13:39:11;12.80;49.20
14101;DHT22;7127;49.372;8.166;2024-03-23T13:41:39;12.90;49.50
14101;DHT22;7127;49.372;8.166;2024-03-23T13:44:05;12.90;49.30
14101;DHT22;7127;49.372;8.166;2024-03-23T13:46:32;12.90;49.20
14101;DHT22;7127;49.372;8.166;2024-03-23T13:48:57;13.00;49.20
14101;DHT22;7127;49.372;8.166;2024-03-23T13:51:25;13.10;49.10
14101;DHT22;7127;49.372;8.166;2024-03-23T13:53:52;13.10;49.30
14101;DHT22;7127;49.372;8.166;2024-03-23T13:56:20;13.20;49.20
14101;DHT22;7127;49.372;8.166;2024-03-23T13:58:46;13.20;49.20
14101;DHT22;7127;49.372;8.166;2024-03-23T14:01:14;13.40;49.10
14101;DHT22;7127;49.372;8.166;2024-03-23T14:03:40;13.70;49.20
14101;DHT22;7127;49.372;8.166;2024-03-23T14:06:07;13.30;48.80
14101;DHT22;7127;49.372;8.166;2024-03-23T14:08:33;13.40;48.70
14101;DHT22;7127;49.372;8.166;2024-03-23T14:11:02;13.50;48.70
14101;DHT22;7127;49.372;8.166;2024-03-23T14:13:30;13.60;49.00
14101;DHT22;7127;49.372;8.166;2024-03-23T14:15:57;13.50;48.20
14101;DHT22;7127;49.372;8.166;2024-03-23T14:18:24;13.60;48.10
14101;DHT22;7127;49.372;8.166;2024-03-23T14:20:52;13.60;48.20
14101;DHT22;7127;49.372;8.166;2024-03-23T14:23:18;13.80;48.20
14101;DHT22;7127;49.372;8.166;2024-03-23T14:25:45;13.80;47.80
14101;DHT22;7127;49.372;8.166;2024-03-23T14:28:11;13.90;47.10
14101;DHT22;7127;49.372;8.166;2024-03-23T14:30:42;13.90;47.20
14101;DHT22;7127;49.372;8.166;2024-03-23T14:33:08;14.40;46.40
14101;DHT22;7127;49.372;8.166;2024-03-23T14:35:35;13.90;46.30
14101;DHT22;7127;49.372;8.166;2024-03-23T14:38:01;13.90;46.20
14101;DHT22;7127;49.372;8.166;2024-03-23T14:40:28;13.90;46.00
14101;DHT22;7127;49.372;8.166;2024-03-23T14:42:54;14.00;45.90
14101;DHT22;7127;49.372;8.166;2024-03-23T14:45:21;14.10;44.80
14101;DHT22;7127;49.372;8.166;2024-03-23T14:47:50;14.00;44.90
14101;DHT22;7127;49.372;8.166;2024-03-23T14:50:17;14.00;44.90
14101;DHT22;7127;49.372;8.166;2024-03-23T14:52:44;14.00;44.60
14101;DHT22;7127;49.372;8.166;2024-03-23T14:55:11;14.20;44.50
14101;DHT22;7127;49.372;8.166;2024-03-23T14:57:37;14.10;44.80
14101;DHT22;7127;49.372;8.166;2024-03-23T15:00:07;14.10;44.40
14101;DHT22;7127;49.372;8.166;2024-03-23T15:02:33;14.10;44.30
14101;DHT22;7127;49.372;8.166;2024-03-23T15:05:02;14.20;44.20
14101;DHT22;7127;49.372;8.166;2024-03-23T15:07:29;14.20;43.30
14101;DHT22;7127;49.372;8.166;2024-03-23T15:09:55;14.10;43.70
14101;DHT22;7127;49.372;8.166;2024-03-23T15:12:21;14.10;42.80
14101;DHT22;7127;49.372;8.166;2024-03-23T15:14:48;14.10;43.20
14101;DHT22;7127;49.372;8.166;2024-03-23T15:17:14;14.20;43.40
14101;DHT22;7127;49.372;8.166;2024-03-23T15:19:41;14.20;43.60
14101;DHT22;7127;49.372;8.166;2024-03-23T15:22:09;14.20;41.50
14101;DHT22;7127;49.372;8.166;2024-03-23T15:24:36;14.20;42.00
14101;DHT22;7127;49.372;8.166;2024-03-23T15:27:02;14.20;43.60
14101;DHT22;7127;49.372;8.166;2024-03-23T15:29:29;14.10;44.40
14101;DHT22;7127;49.372;8.166;2024-03-23T15:31:55;14.00;44.20
14101;DHT22;7127;49.372;8.166;2024-03-23T15:34:22;13.80;44.50
14101;DHT22;7127;49.372;8.166;2024-03-23T15:36:48;13.60;44.40
14101;DHT22;7127;49.372;8.166;2024-03-23T15:39:17;13.30;44.70
14101;DHT22;7127;49.372;8.166;2024-03-23T15:41:44;13.00;44.60
14101;DHT22;7127;49.372;8.166;2024-03-23T15:44:11;12.60;44.70
14101;DHT22;7127;49.372;8.166;2024-03-23T15:46:37;12.40;44.70
14101;DHT22;7127;49.372;8.166;2024-03-23T15:49:04;12.20;45.70
14101;DHT22;7127;49.372;8.166;2024-03-23T15:51:30;12.00;45.80
14101;DHT22;7127;49.372;8.166;2024-03-23T15:53:58;11.90;46.30
14101;DHT22;7127;49.372;8.166;2024-03-23T15:56:26;11.90;46.70
14101;DHT22;7127;49.372;8.166;2024-03-23T15:58:53;11.80;47.00
14101;DHT22;7127;49.372;8.166;2024-03-23T16:01:18;11.80;47.30
14101;DHT22;7127;49.372;8.166;2024-03-23T16:03:46;11.80;47.10
14101;DHT22;7127;49.372;8.166;2024-03-23T16:06:12;11.70;47.20
14101;DHT22;7127;49.372;8.166;2024-03-23T16:08:38;11.70;47.90
14101;DHT22;7127;49.372;8.166;2024-03-23T16:11:05;11.70;47.30
14101;DHT22;7127;49.372;8.166;2024-03-23T16:13:34;11.70;47.40
14101;DHT22;7127;49.372;8.166;2024-03-23T16:16:01;11.70;47.60
14101;DHT22;7127;49.372;8.166;2024-03-23T16:18:29;11.70;47.90
14101;DHT22;7127;49.372;8.166;2024-03-23T16:20:55;11.70;48.20
14101;DHT22;7127;49.372;8.166;2024-03-23T16:23:23;11.70;48.10
14101;DHT22;7127;49.372;8.166;2024-03-23T16:25:49;11.70;48.60
14101;DHT22;7127;49.372;8.166;2024-03-23T16:28:25;11.80;48.40
14101;DHT22;7127;49.372;8.166;2024-03-23T16:30:56;11.70;48.20
14101;DHT22;7127;49.372;8.166;2024-03-23T16:33:23;11.70;48.20
14101;DHT22;7127;49.372;8.166;2024-03-23T16:35:59;11.80;48.40